首页
METAR-TAF:

METAR-TAF

机场 :

Pope Air Force Base

費耶特維爾 / Pope, 北卡罗来纳州, 美国

纬度: 35-10N, 经度: 079-02W, 海拔: 61米

当前天气观测

该预报发布于52分钟前的01:56 UTC
风速6节,风向东北
温度 5°C
湿度 81%
气压 1015 hPa
能見度: 16.1公里
散云层高于1800英尺

METAR: KPOB 170156Z AUTO 05006KT 10SM SCT018 05/02 A2997 RMK AO2 SLP152 T00470022 $

时间: 21:48 (02:48 UTC)

预报

该预报发布于48分钟前的02:00 UTC
预报有效从17日的 02点(UTC)到 18日的 08点(UTC)
风速9节,风向东北
能见度10公里或以上
阴天层高于2000英尺
成为
从 17日的 04点(UTC)到 17日的 05点(UTC)
风速10节,风向东北,有时为15节阵风
能见度10公里或以上
散云层高于1500英尺
阴天层高于2500英尺
成为
从 17日的 08点(UTC)到 17日的 09点(UTC)
风速9节,风向东转东北
能见度10公里或以上
散云层高于1500英尺
阴天层高于2500英尺
成为
从 17日的 12点(UTC)到 17日的 13点(UTC)
风速6节,风向东转东北
能见度10公里或以上
多云层高于1500英尺
阴天层高于2500英尺
成为
从 17日的 18点(UTC)到 17日的 19点(UTC)
风速6节,风向东南
能見度: 8000
阴天层高于800英尺
小雨
成为
从 17日的 20点(UTC)到 17日的 21点(UTC)
风速9节,风向东转东南
能見度: 8000
阴天层高于500英尺
小雨

TAF: KPOB 170200Z 1702/1808 04009KT 9999 OVC020 QNH2977INS BECMG 1704/1705 05010G15KT 9999 SCT015 OVC025 QNH2981INS BECMG 1708/1709 06009KT 9999 SCT015 OVC025 QNH2994INS BECMG 1712/1713 06006KT 9999 BKN015 OVC025 QNH2999INS BECMG 1718/1719 14006KT 8000 -RA OVC008 QNH2996INS BECMG 1720/1721 12009KT 8000 -RA OVC005 QNH3000INS TX06/1721Z TN02/1711Z

超过4000个机场的气象观测和天气预报(METAR&TAF报告)。

可查询的气象台以黄色和红色小点在地图上表示。

将鼠标移到小点上方,可查看气象台名称。

然后点击查看天气观测和预报。

如需切换地图:点击带黑十字的绿色按钮放大地图;点击带横线的绿色按钮缩小地图;或者点击绿色箭头查看邻近地区的地图。


METAR-TAF: